sensor_id;sensor_type;location;lat;lon;timestamp;pressure;altitude;pressure_sealevel;temperature;humidity
52137;BME280;69622;49.570;10.986;2024-03-23T00:56:13;97618.66;;;9.17;100.00
52137;BME280;69622;49.570;10.986;2024-03-23T00:59:13;97605.44;;;9.20;100.00
52137;BME280;69622;49.570;10.986;2024-03-23T01:02:14;97600.66;;;9.05;100.00
52137;BME280;69622;49.570;10.986;2024-03-23T01:05:14;97601.97;;;9.31;100.00
52137;BME280;69622;49.570;10.986;2024-03-23T01:08:15;97598.25;;;9.13;100.00
52137;BME280;69622;49.570;10.986;2024-03-23T01:11:16;97595.31;;;9.17;100.00
52137;BME280;69622;49.570;10.986;2024-03-23T01:14:16;97592.94;;;9.14;100.00
52137;BME280;69622;49.570;10.986;2024-03-23T01:17:17;97584.25;;;9.15;100.00
52137;BME280;69622;49.570;10.986;2024-03-23T01:20:17;97585.06;;;9.16;100.00
52137;BME280;69622;49.570;10.986;2024-03-23T01:23:18;97587.41;;;9.19;100.00
52137;BME280;69622;49.570;10.986;2024-03-23T01:26:18;97575.63;;;9.15;100.00
52137;BME280;69622;49.570;10.986;2024-03-23T01:29:19;97568.91;;;9.12;100.00
52137;BME280;69622;49.570;10.986;2024-03-23T01:32:19;97562.06;;;8.90;100.00
52137;BME280;69622;49.570;10.986;2024-03-23T01:35:20;97564.75;;;9.00;100.00
52137;BME280;69622;49.570;10.986;2024-03-23T01:38:20;97561.34;;;8.99;100.00
52137;BME280;69622;49.570;10.986;2024-03-23T01:41:21;97558.00;;;8.97;100.00
52137;BME280;69622;49.570;10.986;2024-03-23T01:44:21;97558.63;;;9.01;100.00
52137;BME280;69622;49.570;10.986;2024-03-23T01:47:22;97552.50;;;8.91;100.00
52137;BME280;69622;49.570;10.986;2024-03-23T01:50:23;97552.13;;;8.95;100.00
52137;BME280;69622;49.570;10.986;2024-03-23T01:53:26;97542.59;;;8.64;100.00
52137;BME280;69622;49.570;10.986;2024-03-23T01:56:27;97537.47;;;8.85;100.00
52137;BME280;69622;49.570;10.986;2024-03-23T01:59:27;97538.84;;;8.89;100.00
52137;BME280;69622;49.570;10.986;2024-03-23T02:02:28;97538.06;;;8.77;100.00
52137;BME280;69622;49.570;10.986;2024-03-23T02:05:29;97530.25;;;8.88;100.00
52137;BME280;69622;49.570;10.986;2024-03-23T02:08:30;97528.63;;;8.87;100.00
52137;BME280;69622;49.570;10.986;2024-03-23T02:11:31;97518.66;;;8.72;100.00
52137;BME280;69622;49.570;10.986;2024-03-23T02:14:32;97506.59;;;8.82;100.00
52137;BME280;69622;49.570;10.986;2024-03-23T02:17:33;97510.19;;;8.69;100.00
52137;BME280;69622;49.570;10.986;2024-03-23T02:20:35;97500.97;;;8.77;100.00
52137;BME280;69622;49.570;10.986;2024-03-23T02:23:36;97485.97;;;8.80;100.00
52137;BME280;69622;49.570;10.986;2024-03-23T02:26:36;97484.28;;;8.69;100.00
52137;BME280;69622;49.570;10.986;2024-03-23T02:29:37;97478.66;;;8.85;100.00
52137;BME280;69622;49.570;10.986;2024-03-23T02:32:37;97471.31;;;8.90;100.00
52137;BME280;69622;49.570;10.986;2024-03-23T02:35:38;97467.78;;;9.12;100.00
52137;BME280;69622;49.570;10.986;2024-03-23T02:38:38;97465.44;;;8.88;100.00
52137;BME280;69622;49.570;10.986;2024-03-23T02:41:39;97461.09;;;8.89;100.00
52137;BME280;69622;49.570;10.986;2024-03-23T02:44:40;97454.69;;;8.93;100.00
52137;BME280;69622;49.570;10.986;2024-03-23T02:47:40;97466.41;;;8.87;100.00
52137;BME280;69622;49.570;10.986;2024-03-23T02:50:41;97456.34;;;8.94;100.00
52137;BME280;69622;49.570;10.986;2024-03-23T02:53:41;97439.84;;;8.74;100.00
52137;BME280;69622;49.570;10.986;2024-03-23T02:56:42;97438.75;;;8.97;100.00
52137;BME280;69622;49.570;10.986;2024-03-23T02:59:42;97425.03;;;9.07;100.00
52137;BME280;69622;49.570;10.986;2024-03-23T03:02:43;97413.66;;;8.98;100.00
52137;BME280;69622;49.570;10.986;2024-03-23T03:05:44;97422.25;;;8.98;100.00
52137;BME280;69622;49.570;10.986;2024-03-23T03:08:44;97419.09;;;8.74;100.00
52137;BME280;69622;49.570;10.986;2024-03-23T03:11:45;97420.72;;;8.96;100.00
52137;BME280;69622;49.570;10.986;2024-03-23T03:14:45;97417.16;;;8.87;100.00
52137;BME280;69622;49.570;10.986;2024-03-23T03:17:46;97407.69;;;9.07;100.00
52137;BME280;69622;49.570;10.986;2024-03-23T03:20:46;97402.00;;;9.13;100.00
52137;BME280;69622;49.570;10.986;2024-03-23T03:23:47;97393.38;;;9.43;100.00
52137;BME280;69622;49.570;10.986;2024-03-23T03:26:50;97384.78;;;9.12;100.00
52137;BME280;69622;49.570;10.986;2024-03-23T03:29:51;97389.72;;;8.85;100.00
52137;BME280;69622;49.570;10.986;2024-03-23T03:32:54;97379.91;;;9.19;100.00
52137;BME280;69622;49.570;10.986;2024-03-23T03:35:55;97356.69;;;9.48;100.00
52137;BME280;69622;49.570;10.986;2024-03-23T03:38:56;97351.84;;;9.34;100.00
52137;BME280;69622;49.570;10.986;2024-03-23T03:41:56;97350.66;;;9.07;100.00
52137;BME280;69622;49.570;10.986;2024-03-23T03:44:57;97326.53;;;9.16;100.00
52137;BME280;69622;49.570;10.986;2024-03-23T03:47:57;97331.63;;;8.97;100.00
52137;BME280;69622;49.570;10.986;2024-03-23T03:50:59;97319.47;;;8.97;100.00
52137;BME280;69622;49.570;10.986;2024-03-23T03:54:00;97320.41;;;8.87;100.00
52137;BME280;69622;49.570;10.986;2024-03-23T03:57:01;97306.44;;;8.78;100.00
52137;BME280;69622;49.570;10.986;2024-03-23T04:00:02;97296.13;;;8.88;100.00
52137;BME280;69622;49.570;10.986;2024-03-23T04:03:04;97300.63;;;8.86;100.00
52137;BME280;69622;49.570;10.986;2024-03-23T04:06:05;97293.81;;;8.94;100.00
52137;BME280;69622;49.570;10.986;2024-03-23T04:09:05;97309.72;;;8.80;100.00
52137;BME280;69622;49.570;10.986;2024-03-23T04:12:07;97293.81;;;8.85;100.00
52137;BME280;69622;49.570;10.986;2024-03-23T04:15:07;97301.00;;;8.81;100.00
52137;BME280;69622;49.570;10.986;2024-03-23T04:18:08;97283.41;;;9.15;100.00
52137;BME280;69622;49.570;10.986;2024-03-23T04:21:09;97283.78;;;9.01;100.00
52137;BME280;69622;49.570;10.986;2024-03-23T04:24:09;97296.88;;;8.69;100.00
52137;BME280;69622;49.570;10.986;2024-03-23T04:27:10;97291.44;;;8.82;100.00
52137;BME280;69622;49.570;10.986;2024-03-23T04:30:11;97284.00;;;8.88;100.00
52137;BME280;69622;49.570;10.986;2024-03-23T04:33:12;97296.97;;;8.67;100.00
52137;BME280;69622;49.570;10.986;2024-03-23T04:36:12;97295.81;;;8.81;100.00
52137;BME280;69622;49.570;10.986;2024-03-23T04:39:13;97315.06;;;8.58;100.00
52137;BME280;69622;49.570;10.986;2024-03-23T04:42:16;97317.22;;;8.83;100.00
52137;BME280;69622;49.570;10.986;2024-03-23T04:45:17;97321.44;;;8.75;100.00
52137;BME280;69622;49.570;10.986;2024-03-23T04:48:21;97307.59;;;8.85;100.00
52137;BME280;69622;49.570;10.986;2024-03-23T04:51:23;97268.38;;;8.69;100.00
52137;BME280;69622;49.570;10.986;2024-03-23T04:54:24;97280.16;;;8.52;100.00
52137;BME280;69622;49.570;10.986;2024-03-23T04:57:24;97296.00;;;8.38;100.00
52137;BME280;69622;49.570;10.986;2024-03-23T05:00:25;97300.16;;;8.50;100.00
52137;BME280;69622;49.570;10.986;2024-03-23T05:03:26;97295.78;;;8.51;100.00
52137;BME280;69622;49.570;10.986;2024-03-23T05:06:27;97292.19;;;8.63;100.00
52137;BME280;69622;49.570;10.986;2024-03-23T05:09:27;97288.69;;;8.74;100.00
52137;BME280;69622;49.570;10.986;2024-03-23T05:12:30;97273.69;;;8.47;100.00
52137;BME280;69622;49.570;10.986;2024-03-23T05:15:31;97271.41;;;8.53;100.00
52137;BME280;69622;49.570;10.986;2024-03-23T05:18:32;97268.78;;;8.74;100.00
52137;BME280;69622;49.570;10.986;2024-03-23T05:21:32;97261.69;;;8.76;100.00
52137;BME280;69622;49.570;10.986;2024-03-23T05:24:33;97264.97;;;8.78;100.00
52137;BME280;69622;49.570;10.986;2024-03-23T05:27:33;97238.94;;;8.80;100.00
52137;BME280;69622;49.570;10.986;2024-03-23T05:30:34;97248.16;;;9.03;100.00
52137;BME280;69622;49.570;10.986;2024-03-23T05:33:36;97257.03;;;9.10;100.00
52137;BME280;69622;49.570;10.986;2024-03-23T05:36:38;97252.34;;;8.85;100.00
52137;BME280;69622;49.570;10.986;2024-03-23T05:39:38;97249.16;;;8.81;100.00
52137;BME280;69622;49.570;10.986;2024-03-23T05:42:42;97254.38;;;8.91;100.00
52137;BME280;69622;49.570;10.986;2024-03-23T05:45:42;97247.47;;;9.01;100.00
52137;BME280;69622;49.570;10.986;2024-03-23T05:48:43;97242.34;;;9.20;100.00
52137;BME280;69622;49.570;10.986;2024-03-23T05:51:43;97236.22;;;9.60;100.00
52137;BME280;69622;49.570;10.986;2024-03-23T05:54:44;97238.13;;;9.58;100.00
52137;BME280;69622;49.570;10.986;2024-03-23T05:57:44;97239.91;;;9.57;100.00
52137;BME280;69622;49.570;10.986;2024-03-23T06:00:45;97235.69;;;9.47;100.00
52137;BME280;69622;49.570;10.986;2024-03-23T06:03:46;97236.75;;;9.44;100.00
52137;BME280;69622;49.570;10.986;2024-03-23T06:06:46;97234.31;;;9.33;100.00
52137;BME280;69622;49.570;10.986;2024-03-23T06:09:47;97241.13;;;9.34;100.00
52137;BME280;69622;49.570;10.986;2024-03-23T06:12:48;97242.97;;;9.13;100.00
52137;BME280;69622;49.570;10.986;2024-03-23T06:15:49;97224.06;;;9.32;100.00
52137;BME280;69622;49.570;10.986;2024-03-23T06:18:53;97217.34;;;9.19;100.00
52137;BME280;69622;49.570;10.986;2024-03-23T06:21:55;97225.56;;;9.34;100.00
52137;BME280;69622;49.570;10.986;2024-03-23T06:24:55;97229.94;;;9.34;100.00
52137;BME280;69622;49.570;10.986;2024-03-23T06:27:56;97231.44;;;9.55;100.00
52137;BME280;69622;49.570;10.986;2024-03-23T06:30:58;97242.34;;;9.30;100.00
52137;BME280;69622;49.570;10.986;2024-03-23T06:33:59;97250.03;;;9.60;100.00
52137;BME280;69622;49.570;10.986;2024-03-23T06:36:59;97241.13;;;9.34;100.00
52137;BME280;69622;49.570;10.986;2024-03-23T06:40:00;97229.63;;;9.17;100.00
52137;BME280;69622;49.570;10.986;2024-03-23T06:43:00;97225.69;;;9.42;100.00
52137;BME280;69622;49.570;10.986;2024-03-23T06:46:01;97223.94;;;9.62;100.00
52137;BME280;69622;49.570;10.986;2024-03-23T06:49:02;97221.75;;;9.38;100.00
52137;BME280;69622;49.570;10.986;2024-03-23T06:52:03;97232.69;;;9.71;100.00
52137;BME280;69622;49.570;10.986;2024-03-23T06:55:04;97232.81;;;9.69;100.00
52137;BME280;69622;49.570;10.986;2024-03-23T06:58:06;97227.34;;;9.91;100.00
52137;BME280;69622;49.570;10.986;2024-03-23T07:01:07;97236.66;;;9.94;100.00
52137;BME280;69622;49.570;10.986;2024-03-23T07:04:07;97237.03;;;10.09;100.00
52137;BME280;69622;49.570;10.986;2024-03-23T07:07:08;97233.06;;;10.14;100.00
52137;BME280;69622;49.570;10.986;2024-03-23T07:10:09;97250.00;;;10.18;100.00
52137;BME280;69622;49.570;10.986;2024-03-23T07:13:09;97236.09;;;9.90;100.00
52137;BME280;69622;49.570;10.986;2024-03-23T07:16:10;97246.91;;;9.96;100.00
52137;BME280;69622;49.570;10.986;2024-03-23T07:19:10;97248.38;;;9.88;100.00
52137;BME280;69622;49.570;10.986;2024-03-23T07:22:11;97250.31;;;9.96;100.00
52137;BME280;69622;49.570;10.986;2024-03-23T07:25:11;97247.16;;;10.02;100.00
52137;BME280;69622;49.570;10.986;2024-03-23T07:28:12;97253.84;;;10.05;100.00
52137;BME280;69622;49.570;10.986;2024-03-23T07:31:13;97277.91;;;9.97;100.00
52137;BME280;69622;49.570;10.986;2024-03-23T07:34:14;97282.81;;;9.90;100.00
52137;BME280;69622;49.570;10.986;2024-03-23T07:37:15;97290.47;;;9.73;100.00
52137;BME280;69622;49.570;10.986;2024-03-23T07:40:16;97291.28;;;9.73;100.00
52137;BME280;69622;49.570;10.986;2024-03-23T07:43:16;97300.59;;;9.66;100.00
52137;BME280;69622;49.570;10.986;2024-03-23T07:46:17;97319.03;;;9.73;100.00
52137;BME280;69622;49.570;10.986;2024-03-23T07:49:18;97337.72;;;9.57;100.00
52137;BME280;69622;49.570;10.986;2024-03-23T07:52:19;97339.47;;;9.47;100.00
52137;BME280;69622;49.570;10.986;2024-03-23T07:55:19;97352.50;;;9.66;100.00
52137;BME280;69622;49.570;10.986;2024-03-23T07:58:21;97361.16;;;9.36;100.00
52137;BME280;69622;49.570;10.986;2024-03-23T08:01:22;97356.09;;;9.35;100.00
52137;BME280;69622;49.570;10.986;2024-03-23T08:04:23;97371.09;;;9.31;100.00
52137;BME280;69622;49.570;10.986;2024-03-23T08:07:24;97376.50;;;9.18;100.00
52137;BME280;69622;49.570;10.986;2024-03-23T08:10:25;97379.38;;;9.15;100.00
52137;BME280;69622;49.570;10.986;2024-03-23T08:13:26;97396.50;;;9.07;100.00
52137;BME280;69622;49.570;10.986;2024-03-23T08:16:27;97405.66;;;9.11;100.00
52137;BME280;69622;49.570;10.986;2024-03-23T08:19:28;97418.72;;;8.79;100.00
52137;BME280;69622;49.570;10.986;2024-03-23T08:22:29;97414.19;;;8.71;100.00
52137;BME280;69622;49.570;10.986;2024-03-23T08:25:32;97416.75;;;8.71;100.00
52137;BME280;69622;49.570;10.986;2024-03-23T08:28:33;97418.72;;;8.79;100.00
52137;BME280;69622;49.570;10.986;2024-03-23T08:31:33;97422.38;;;8.76;100.00
52137;BME280;69622;49.570;10.986;2024-03-23T08:34:34;97425.63;;;8.68;100.00
52137;BME280;69622;49.570;10.986;2024-03-23T08:37:34;97451.56;;;8.57;100.00
52137;BME280;69622;49.570;10.986;2024-03-23T08:40:35;97464.81;;;8.75;100.00
52137;BME280;69622;49.570;10.986;2024-03-23T08:43:37;97487.69;;;8.91;100.00
52137;BME280;69622;49.570;10.986;2024-03-23T08:46:38;97504.72;;;8.84;100.00
52137;BME280;69622;49.570;10.986;2024-03-23T08:49:38;97516.34;;;8.57;100.00
52137;BME280;69622;49.570;10.986;2024-03-23T08:52:39;97534.53;;;8.35;100.00
52137;BME280;69622;49.570;10.986;2024-03-23T08:55:39;97550.78;;;8.37;100.00
52137;BME280;69622;49.570;10.986;2024-03-23T08:58:40;97555.25;;;8.01;100.00
52137;BME280;69622;49.570;10.986;2024-03-23T09:01:40;97558.81;;;7.89;100.00
52137;BME280;69622;49.570;10.986;2024-03-23T09:04:41;97584.56;;;8.02;100.00
52137;BME280;69622;49.570;10.986;2024-03-23T09:07:42;97590.78;;;7.88;100.00
52137;BME280;69622;49.570;10.986;2024-03-23T09:10:43;97596.78;;;7.89;100.00
52137;BME280;69622;49.570;10.986;2024-03-23T09:13:43;97600.63;;;7.72;100.00
52137;BME280;69622;49.570;10.986;2024-03-23T09:16:44;97610.06;;;7.62;100.00
52137;BME280;69622;49.570;10.986;2024-03-23T09:19:45;97611.72;;;7.85;100.00
52137;BME280;69622;49.570;10.986;2024-03-23T09:22:48;97610.44;;;7.79;100.00
52137;BME280;69622;49.570;10.986;2024-03-23T09:25:48;97634.13;;;8.08;100.00
52137;BME280;69622;49.570;10.986;2024-03-23T09:28:49;97626.56;;;7.94;100.00
52137;BME280;69622;49.570;10.986;2024-03-23T09:31:49;97635.16;;;8.17;100.00
52137;BME280;69622;49.570;10.986;2024-03-23T09:34:50;97622.59;;;8.46;100.00
52137;BME280;69622;49.570;10.986;2024-03-23T09:37:51;97629.06;;;8.52;100.00
52137;BME280;69622;49.570;10.986;2024-03-23T09:40:53;97633.13;;;8.88;100.00
52137;BME280;69622;49.570;10.986;2024-03-23T09:43:54;97624.81;;;8.51;100.00
52137;BME280;69622;49.570;10.986;2024-03-23T09:46:55;97641.91;;;8.53;100.00
52137;BME280;69622;49.570;10.986;2024-03-23T09:49:56;97640.28;;;8.52;100.00
52137;BME280;69622;49.570;10.986;2024-03-23T09:52:58;97641.16;;;8.74;100.00
52137;BME280;69622;49.570;10.986;2024-03-23T09:55:59;97659.06;;;8.88;100.00
52137;BME280;69622;49.570;10.986;2024-03-23T09:59:03;97670.25;;;8.88;100.00
52137;BME280;69622;49.570;10.986;2024-03-23T10:02:04;97672.47;;;8.82;100.00
52137;BME280;69622;49.570;10.986;2024-03-23T10:05:19;97677.47;;;8.62;100.00
52137;BME280;69622;49.570;10.986;2024-03-23T10:08:20;97682.88;;;8.70;100.00
52137;BME280;69622;49.570;10.986;2024-03-23T10:11:21;97700.41;;;8.22;100.00
52137;BME280;69622;49.570;10.986;2024-03-23T10:14:31;97706.41;;;8.23;100.00
52137;BME280;69622;49.570;10.986;2024-03-23T10:17:31;97694.94;;;8.03;100.00
52137;BME280;69622;49.570;10.986;2024-03-23T10:20:32;97709.06;;;7.99;100.00
52137;BME280;69622;49.570;10.986;2024-03-23T10:23:33;97718.22;;;8.03;100.00
52137;BME280;69622;49.570;10.986;2024-03-23T10:26:33;97722.03;;;8.10;100.00
52137;BME280;69622;49.570;10.986;2024-03-23T10:29:34;97698.97;;;8.18;100.00
52137;BME280;69622;49.570;10.986;2024-03-23T10:32:34;97705.47;;;8.24;100.00
52137;BME280;69622;49.570;10.986;2024-03-23T10:35:37;97707.91;;;8.14;100.00
52137;BME280;69622;49.570;10.986;2024-03-23T10:38:40;97722.88;;;8.22;100.00
52137;BME280;69622;49.570;10.986;2024-03-23T10:41:41;97715.84;;;8.46;100.00
52137;BME280;69622;49.570;10.986;2024-03-23T10:44:41;97706.06;;;8.50;100.00
52137;BME280;69622;49.570;10.986;2024-03-23T10:47:42;97712.09;;;8.39;100.00
52137;BME280;69622;49.570;10.986;2024-03-23T10:50:43;97718.69;;;8.54;100.00
52137;BME280;69622;49.570;10.986;2024-03-23T10:53:44;97714.56;;;8.85;100.00
52137;BME280;69622;49.570;10.986;2024-03-23T10:56:47;97714.38;;;9.20;100.00
52137;BME280;69622;49.570;10.986;2024-03-23T10:59:50;97722.31;;;8.96;100.00
52137;BME280;69622;49.570;10.986;2024-03-23T11:02:50;97729.38;;;8.83;100.00
52137;BME280;69622;49.570;10.986;2024-03-23T11:05:51;97733.53;;;8.52;100.00
52137;BME280;69622;49.570;10.986;2024-03-23T11:08:51;97731.19;;;8.60;100.00
52137;BME280;69622;49.570;10.986;2024-03-23T11:11:52;97732.94;;;8.82;100.00
52137;BME280;69622;49.570;10.986;2024-03-23T11:14:55;97729.06;;;8.54;100.00
52137;BME280;69622;49.570;10.986;2024-03-23T11:18:07;97727.34;;;8.31;100.00
52137;BME280;69622;49.570;10.986;2024-03-23T11:24:51;97733.34;;;8.31;100.00
52137;BME280;69622;49.570;10.986;2024-03-23T11:27:53;97741.19;;;8.43;100.00
52137;BME280;69622;49.570;10.986;2024-03-23T11:30:53;97736.59;;;9.02;100.00
52137;BME280;69622;49.570;10.986;2024-03-23T11:34:18;97733.94;;;9.13;100.00
52137;BME280;69622;49.570;10.986;2024-03-23T11:37:19;97728.69;;;9.47;100.00
52137;BME280;69622;49.570;10.986;2024-03-23T11:40:20;97733.09;;;9.67;100.00
52137;BME280;69622;49.570;10.986;2024-03-23T11:43:20;97734.38;;;9.29;98.27
52137;BME280;69622;49.570;10.986;2024-03-23T11:46:22;97741.91;;;8.89;100.00
52137;BME280;69622;49.570;10.986;2024-03-23T11:49:24;97734.44;;;8.96;100.00
52137;BME280;69622;49.570;10.986;2024-03-23T11:52:24;97754.97;;;8.88;100.00
52137;BME280;69622;49.570;10.986;2024-03-23T11:55:25;97763.34;;;8.80;100.00
52137;BME280;69622;49.570;10.986;2024-03-23T11:58:26;97760.41;;;8.74;100.00
52137;BME280;69622;49.570;10.986;2024-03-23T12:01:27;97746.94;;;8.80;100.00
52137;BME280;69622;49.570;10.986;2024-03-23T12:04:28;97751.06;;;8.93;100.00
52137;BME280;69622;49.570;10.986;2024-03-23T12:07:29;97743.19;;;8.84;91.71
52137;BME280;69622;49.570;10.986;2024-03-23T12:10:29;97743.00;;;9.30;96.69
52137;BME280;69622;49.570;10.986;2024-03-23T12:13:30;97734.34;;;9.52;91.99
52137;BME280;69622;49.570;10.986;2024-03-23T12:16:30;97736.25;;;9.71;85.70
52137;BME280;69622;49.570;10.986;2024-03-23T12:19:31;97732.47;;;9.75;80.83
52137;BME280;69622;49.570;10.986;2024-03-23T12:22:32;97740.03;;;10.19;83.53
52137;BME280;69622;49.570;10.986;2024-03-23T12:25:32;97743.31;;;10.01;75.49
52137;BME280;69622;49.570;10.986;2024-03-23T12:28:33;97738.16;;;10.22;76.62
52137;BME280;69622;49.570;10.986;2024-03-23T12:31:33;97742.03;;;9.74;72.37
52137;BME280;69622;49.570;10.986;2024-03-23T12:34:34;97742.94;;;9.52;71.18
52137;BME280;69622;49.570;10.986;2024-03-23T12:37:35;97731.53;;;9.00;73.63
52137;BME280;69622;49.570;10.986;2024-03-23T12:40:35;97727.88;;;8.92;74.00
52137;BME280;69622;49.570;10.986;2024-03-23T12:43:36;97725.72;;;9.51;76.72
52137;BME280;69622;49.570;10.986;2024-03-23T12:46:38;97726.78;;;9.81;72.59
52137;BME280;69622;49.570;10.986;2024-03-23T12:49:38;97716.53;;;10.00;73.69
52137;BME280;69622;49.570;10.986;2024-03-23T12:52:39;97725.78;;;10.35;71.93
52137;BME280;69622;49.570;10.986;2024-03-23T12:55:39;97717.59;;;10.18;70.84
52137;BME280;69622;49.570;10.986;2024-03-23T12:58:40;97718.66;;;9.74;67.98
52137;BME280;69622;49.570;10.986;2024-03-23T13:01:40;97715.13;;;9.75;69.36
52137;BME280;69622;49.570;10.986;2024-03-23T13:04:41;97716.16;;;9.52;67.66
52137;BME280;69622;49.570;10.986;2024-03-23T13:07:42;97712.41;;;9.45;68.60
52137;BME280;69622;49.570;10.986;2024-03-23T13:10:42;97710.47;;;9.58;70.19
52137;BME280;69622;49.570;10.986;2024-03-23T13:13:43;97720.28;;;9.54;68.84
52137;BME280;69622;49.570;10.986;2024-03-23T13:16:44;97712.91;;;9.71;69.12
52137;BME280;69622;49.570;10.986;2024-03-23T13:19:45;97709.31;;;10.04;68.05
52137;BME280;69622;49.570;10.986;2024-03-23T13:22:46;97710.44;;;9.90;68.64
52137;BME280;69622;49.570;10.986;2024-03-23T13:25:51;97710.06;;;10.15;68.03
52137;BME280;69622;49.570;10.986;2024-03-23T13:28:53;97700.41;;;10.88;67.97
52137;BME280;69622;49.570;10.986;2024-03-23T13:31:53;97697.97;;;10.96;64.41
52137;BME280;69622;49.570;10.986;2024-03-23T13:34:54;97689.28;;;11.26;61.55
52137;BME280;69622;49.570;10.986;2024-03-23T13:37:54;97683.41;;;11.44;63.52
52137;BME280;69622;49.570;10.986;2024-03-23T13:40:59;97676.03;;;11.87;63.82
52137;BME280;69622;49.570;10.986;2024-03-23T13:44:00;97674.91;;;11.80;59.53
52137;BME280;69622;49.570;10.986;2024-03-23T13:47:00;97679.84;;;11.74;62.75
52137;BME280;69622;49.570;10.986;2024-03-23T13:50:01;97679.72;;;11.56;58.75
52137;BME280;69622;49.570;10.986;2024-03-23T13:53:02;97686.53;;;11.28;62.10
52137;BME280;69622;49.570;10.986;2024-03-23T13:56:02;97670.09;;;11.18;62.72
52137;BME280;69622;49.570;10.986;2024-03-23T13:59:03;97677.50;;;10.63;61.57
52137;BME280;69622;49.570;10.986;2024-03-23T14:02:04;97691.53;;;10.50;62.84
52137;BME280;69622;49.570;10.986;2024-03-23T14:05:04;97683.94;;;10.38;64.63
52137;BME280;69622;49.570;10.986;2024-03-23T14:08:06;97673.25;;;10.31;66.26
52137;BME280;69622;49.570;10.986;2024-03-23T14:11:10;97658.25;;;9.93;65.93
52137;BME280;69622;49.570;10.986;2024-03-23T14:14:10;97662.31;;;9.86;64.80
52137;BME280;69622;49.570;10.986;2024-03-23T14:17:11;97661.28;;;9.77;65.81
52137;BME280;69622;49.570;10.986;2024-03-23T14:20:14;97665.56;;;9.78;68.32
52137;BME280;69622;49.570;10.986;2024-03-23T14:23:16;97655.53;;;9.74;66.90
52137;BME280;69622;49.570;10.986;2024-03-23T14:26:17;97658.72;;;9.98;71.66
52137;BME280;69622;49.570;10.986;2024-03-23T14:29:18;97655.56;;;9.95;73.44
52137;BME280;69622;49.570;10.986;2024-03-23T14:32:18;97647.47;;;9.77;75.97
52137;BME280;69622;49.570;10.986;2024-03-23T14:35:19;97646.88;;;9.64;77.17
52137;BME280;69622;49.570;10.986;2024-03-23T14:38:19;97647.50;;;9.98;79.26
52137;BME280;69622;49.570;10.986;2024-03-23T14:41:20;97652.53;;;10.20;78.41
52137;BME280;69622;49.570;10.986;2024-03-23T14:44:20;97649.22;;;10.39;76.35
52137;BME280;69622;49.570;10.986;2024-03-23T14:47:21;97650.75;;;10.20;75.36
52137;BME280;69622;49.570;10.986;2024-03-23T14:50:21;97648.72;;;10.24;77.16
52137;BME280;69622;49.570;10.986;2024-03-23T14:53:22;97651.69;;;10.19;73.75
52137;BME280;69622;49.570;10.986;2024-03-23T14:56:22;97653.38;;;10.00;74.84
52137;BME280;69622;49.570;10.986;2024-03-23T14:59:24;97660.28;;;9.69;75.10
52137;BME280;69622;49.570;10.986;2024-03-23T15:02:24;97663.44;;;9.93;75.39
52137;BME280;69622;49.570;10.986;2024-03-23T15:05:25;97681.22;;;9.56;81.45
52137;BME280;69622;49.570;10.986;2024-03-23T15:08:26;97676.00;;;8.92;93.42
52137;BME280;69622;49.570;10.986;2024-03-23T15:11:28;97697.19;;;8.19;100.00
52137;BME280;69622;49.570;10.986;2024-03-23T15:14:28;97698.13;;;7.60;100.00
52137;BME280;69622;49.570;10.986;2024-03-23T15:17:29;97713.16;;;7.07;100.00
52137;BME280;69622;49.570;10.986;2024-03-23T15:20:29;97709.19;;;6.78;100.00
52137;BME280;69622;49.570;10.986;2024-03-23T15:23:30;97708.44;;;6.88;100.00
52137;BME280;69622;49.570;10.986;2024-03-23T15:26:30;97694.00;;;7.10;100.00
52137;BME280;69622;49.570;10.986;2024-03-23T15:29:31;97679.09;;;7.61;100.00
52137;BME280;69622;49.570;10.986;2024-03-23T15:32:31;97685.44;;;7.68;100.00
52137;BME280;69622;49.570;10.986;2024-03-23T15:35:32;97677.44;;;7.71;100.00
52137;BME280;69622;49.570;10.986;2024-03-23T15:38:32;97674.13;;;8.16;100.00
52137;BME280;69622;49.570;10.986;2024-03-23T15:41:33;97670.97;;;8.23;100.00
52137;BME280;69622;49.570;10.986;2024-03-23T15:44:36;97674.38;;;8.24;100.00
52137;BME280;69622;49.570;10.986;2024-03-23T15:47:36;97676.94;;;8.13;100.00
52137;BME280;69622;49.570;10.986;2024-03-23T15:50:37;97672.84;;;8.21;100.00
52137;BME280;69622;49.570;10.986;2024-03-23T15:53:37;97674.31;;;8.36;100.00
52137;BME280;69622;49.570;10.986;2024-03-23T15:56:38;97679.88;;;8.19;100.00
52137;BME280;69622;49.570;10.986;2024-03-23T15:59:40;97667.56;;;8.45;100.00
52137;BME280;69622;49.570;10.986;2024-03-23T16:02:41;97656.97;;;8.48;100.00
52137;BME280;69622;49.570;10.986;2024-03-23T16:05:42;97666.06;;;8.43;100.00
52137;BME280;69622;49.570;10.986;2024-03-23T16:08:42;97666.84;;;8.09;100.00
52137;BME280;69622;49.570;10.986;2024-03-23T16:11:43;97678.13;;;8.31;100.00
52137;BME280;69622;49.570;10.986;2024-03-23T16:14:44;97669.13;;;8.36;100.00
52137;BME280;69622;49.570;10.986;2024-03-23T16:17:44;97668.28;;;8.36;100.00
52137;BME280;69622;49.570;10.986;2024-03-23T16:20:52;97670.13;;;8.11;100.00
52137;BME280;69622;49.570;10.986;2024-03-23T16:23:53;97682.16;;;8.24;100.00
52137;BME280;69622;49.570;10.986;2024-03-23T16:26:53;97679.50;;;8.01;100.00
52137;BME280;69622;49.570;10.986;2024-03-23T16:29:54;97671.88;;;8.00;100.00
52137;BME280;69622;49.570;10.986;2024-03-23T16:32:54;97670.84;;;7.67;100.00
52137;BME280;69622;49.570;10.986;2024-03-23T16:38:59;97678.66;;;7.43;100.00
52137;BME280;69622;49.570;10.986;2024-03-23T16:42:00;97671.63;;;7.57;100.00
52137;BME280;69622;49.570;10.986;2024-03-23T16:45:01;97669.56;;;7.62;100.00
52137;BME280;69622;49.570;10.986;2024-03-23T16:48:03;97669.78;;;7.59;100.00